Skip Navigation LinksHome page > Weather > Current weather Skip Navigation Links

Current Weather

Kenosha Regional, Kenosha, Wis.

For information only: do not use for flight planning or navigation.
Latest weather
Observation time Tuesday, October 19, 2021 3:53 PM CDT
Local time Tuesday, October 19, 2021 4:48 PM CDT
Flight conditions Visual Meteorological Conditions
Winds
Wind direction Southwest (220°)
Wind speed 8 mph
Wind gusting to 18 mph
Visibility 10 mi.
Sky condition
Ceiling unlimited
Sky clear
Temperature 72°F
Dewpoint 46°F
Altimeter 30.03 in.Hg
Pressure change last 3 hours0.04 in.Hg
Pressure falling more slowly
Derived measurements
Relative humidity 40%
Density altitude 1612 ft.
Sea-level pressure 30.03 in.Hg
Remarks
Automated weather observing station with precipitation discriminator.
METAR KENW 192053Z 22007G16KT 10SM CLR 22/08 A3003 RMK AO2 SLP169 T02220078 56014

Settings

Location code

InnerDrive.Weather 4.0.6770.0 Release CLR 4.0.30319.42000
Copyright ©2018 Inner Drive Technology. All rights reserved. Portions Copyright ©1986-2018 David Braverman.

Find weather

Site navigation


Skip Navigation Links

Place info

Page info

PayPal - The safer, easier way to pay online!

Return home.

Copyright ©2021 Inner Drive Technology. Purveyors of fine, hand-crafted computer software. Page printed 2021-10-19T21:48:33 UTC.